Time;durP1;ratioP1;P1;durP2;ratioP2;P2;SDS_P1;SDS_P2;PMS_P1;PMS_P2;Temp;Humidity;BMP_temperature;BMP_pressure;BME280_temperature;BME280_humidity;BME280_pressure;Samples;Min_cycle;Max_cycle;Signal;HPM_P1;HPM_P2
2022/08/23 00:01:49;;;;;;;6.55;5.53;;;20.10;67.30;;;;;;5051059;28;20541;-71
2022/08/23 00:04:19;;;;;;;5.95;5.35;;;20.10;67.30;;;;;;5033913;28;20472;-71
2022/08/23 00:06:46;;;;;;;6.47;5.07;;;20.10;67.30;;;;;;5049838;28;20514;-70
2022/08/23 00:09:12;;;;;;;12.25;5.32;;;20.10;67.30;;;;;;5049613;28;20033;-71
2022/08/23 00:11:51;;;;;;;9.32;6.82;;;20.10;67.30;;;;;;5051646;28;20100;-72
2022/08/23 00:14:20;;;;;;;6.53;5.78;;;20.10;67.30;;;;;;5051509;28;20045;-72
2022/08/23 00:16:47;;;;;;;13.73;8.07;;;20.10;67.30;;;;;;5049548;28;20056;-71
2022/08/23 00:19:15;;;;;;;10.48;6.70;;;20.10;67.30;;;;;;5032319;28;20025;-71
2022/08/23 00:21:42;;;;;;;6.65;5.97;;;20.10;67.40;;;;;;5031400;28;20048;-71
2022/08/23 00:24:11;;;;;;;7.43;6.28;;;20.10;67.30;;;;;;5031733;28;20112;-71
2022/08/23 00:26:55;;;;;;;7.47;5.80;;;20.10;67.40;;;;;;5036539;28;20020;-71
2022/08/23 00:29:25;;;;;;;12.75;7.13;;;20.10;67.30;;;;;;5031776;28;20029;-70
2022/08/23 00:31:52;;;;;;;10.35;7.07;;;20.10;67.50;;;;;;5030894;28;20044;-71
2022/08/23 00:34:19;;;;;;;10.68;6.50;;;20.00;67.50;;;;;;5026365;28;20033;-71
2022/08/23 00:36:44;;;;;;;6.70;5.97;;;20.10;67.50;;;;;;5013920;28;20030;-70
2022/08/23 00:39:11;;;;;;;8.32;6.60;;;20.10;67.60;;;;;;5031500;28;20032;-71
2022/08/23 00:41:37;;;;;;;10.40;6.68;;;20.10;67.50;;;;;;5013601;28;20053;-71
2022/08/23 00:49:42;;;;;;;8.98;6.80;;;20.10;67.50;;;;;;5051340;28;20095;-71
2022/08/23 00:52:23;;;;;;;7.20;6.50;;;20.10;67.40;;;;;;5035442;28;20026;-71
2022/08/23 00:54:52;;;;;;;7.43;6.32;;;20.10;67.40;;;;;;5027545;28;20030;-70
2022/08/23 00:57:19;;;;;;;8.98;7.25;;;20.10;67.40;;;;;;5023674;28;20434;-71
2022/08/23 00:59:45;;;;;;;7.70;6.90;;;20.10;68.20;;;;;;5051121;28;20380;-71
2022/08/23 01:02:13;;;;;;;7.13;6.03;;;20.10;67.40;;;;;;5051153;28;20032;-71
2022/08/23 01:04:43;;;;;;;7.13;6.40;;;20.20;67.40;;;;;;5051108;28;20033;-71
2022/08/23 01:07:30;;;;;;;8.25;6.95;;;20.20;67.50;;;;;;5040282;28;20025;-71
2022/08/23 01:10:00;;;;;;;7.15;6.45;;;20.20;67.50;;;;;;5031385;28;20033;-70
2022/08/23 01:12:40;;;;;;;7.80;6.97;;;20.20;67.30;;;;;;5032678;28;20388;-71
2022/08/23 01:15:13;;;;;;;7.30;6.60;;;20.20;67.40;;;;;;5033339;28;20033;-71
2022/08/23 01:17:48;;;;;;;6.93;6.27;;;20.20;67.30;;;;;;5033958;28;20049;-71
2022/08/23 01:20:18;;;;;;;10.02;6.55;;;20.20;67.30;;;;;;5034667;28;20021;-71
2022/08/23 01:23:02;;;;;;;8.88;7.28;;;20.20;67.30;;;;;;5034406;28;20376;-71
2022/08/23 01:25:30;;;;;;;;;;;20.20;67.30;;;;;;5025978;28;20021;-71
2022/08/23 01:27:56;;;;;;;6.82;5.57;;;20.30;67.00;;;;;;5045622;28;19908;-71
2022/08/23 01:30:24;;;;;;;6.60;6.00;;;20.30;67.00;;;;;;5034178;28;20490;-71
2022/08/23 01:32:54;;;;;;;7.32;6.25;;;20.20;67.00;;;;;;5053923;28;20025;-70
2022/08/23 01:35:32;;;;;;;6.53;5.90;;;20.20;67.00;;;;;;5054139;28;20032;-71
2022/08/23 01:37:58;;;;;;;8.30;6.95;;;20.20;67.00;;;;;;5052477;28;20077;-70
2022/08/23 01:40:24;;;;;;;11.27;7.22;;;20.30;67.10;;;;;;5054092;28;20100;-70
2022/08/23 01:42:50;;;;;;;7.85;6.80;;;20.30;67.10;;;;;;5054026;28;20037;-71
2022/08/23 01:45:16;;;;;;;9.43;6.28;;;20.30;67.20;;;;;;5037704;28;20025;-71
2022/08/23 01:47:42;;;;;;;7.43;6.72;;;20.30;67.30;;;;;;5032773;28;20409;-71
2022/08/23 01:50:10;;;;;;;7.93;7.13;;;20.20;67.20;;;;;;5027166;28;20431;-71
2022/08/23 01:52:36;;;;;;;13.20;8.00;;;20.30;67.20;;;;;;5034333;28;20022;-71
2022/08/23 01:55:04;;;;;;;7.40;6.68;;;20.30;67.30;;;;;;5032521;28;20107;-71
2022/08/23 01:57:31;;;;;;;8.07;6.72;;;20.30;67.20;;;;;;5045136;28;20027;-71
2022/08/23 01:59:57;;;;;;;8.13;6.80;;;20.30;67.20;;;;;;5053706;28;20048;-71
2022/08/23 02:02:24;;;;;;;7.53;6.25;;;20.30;67.30;;;;;;5053676;28;20028;-71
2022/08/23 02:04:50;;;;;;;9.68;7.80;;;20.30;67.40;;;;;;5049791;28;20021;-71
2022/08/23 02:07:16;;;;;;;8.82;7.93;;;20.30;67.40;;;;;;5032198;28;20052;-71
2022/08/23 02:09:42;;;;;;;8.32;7.10;;;20.30;67.40;;;;;;5033762;28;20057;-71
2022/08/23 02:12:08;;;;;;;11.23;7.03;;;20.30;67.50;;;;;;5033585;28;20420;-71
2022/08/23 02:14:36;;;;;;;9.02;7.15;;;20.30;67.40;;;;;;5033504;28;20055;-71
2022/08/23 02:17:02;;;;;;;9.93;5.95;;;20.30;67.50;;;;;;5034369;28;20029;-71
2022/08/23 02:19:27;;;;;;;7.78;6.28;;;20.30;67.40;;;;;;5034639;28;20025;-71
2022/08/23 02:21:53;;;;;;;6.45;5.85;;;20.30;67.40;;;;;;5052498;28;20372;-71
2022/08/23 02:24:22;;;;;;;8.68;6.43;;;20.30;67.50;;;;;;5042697;28;20021;-71
2022/08/23 02:26:51;;;;;;;10.25;7.03;;;20.30;67.50;;;;;;5015400;28;20029;-71
2022/08/23 02:29:20;;;;;;;10.75;8.30;;;20.30;67.50;;;;;;5033193;28;20101;-71
2022/08/23 02:31:46;;;;;;;9.32;7.65;;;20.30;67.50;;;;;;5033221;28;20021;-71
2022/08/23 02:34:15;;;;;;;10.95;7.30;;;20.30;67.50;;;;;;5033043;28;20528;-72
2022/08/23 02:36:42;;;;;;;9.13;7.38;;;20.20;67.60;;;;;;5032938;28;20034;-71
2022/08/23 02:39:09;;;;;;;9.77;8.07;;;20.30;67.70;;;;;;5033068;28;20072;-70
2022/08/23 02:41:36;;;;;;;8.02;6.90;;;20.30;67.70;;;;;;5030799;28;20026;-71
2022/08/23 02:44:03;;;;;;;11.98;6.43;;;20.30;67.80;;;;;;5032912;28;20025;-71
2022/08/23 02:46:29;;;;;;;7.80;6.60;;;20.30;67.80;;;;;;5032929;28;20040;-70
2022/08/23 02:48:55;;;;;;;11.18;6.45;;;20.30;67.90;;;;;;5032940;28;20030;-71
2022/08/23 02:51:21;;;;;;;6.97;5.88;;;20.30;68.00;;;;;;5032893;28;20475;-72
2022/08/23 02:53:47;;;;;;;8.23;6.68;;;20.20;67.90;;;;;;5032745;28;20029;-71
2022/08/23 02:56:14;;;;;;;7.50;6.80;;;20.20;67.90;;;;;;5032859;28;20102;-71
2022/08/23 02:58:40;;;;;;;9.27;6.63;;;20.20;67.80;;;;;;5034720;28;20099;-71
2022/08/23 03:01:18;;;;;;;6.05;5.35;;;20.20;67.70;;;;;;5052574;28;20526;-70
2022/08/23 03:03:44;;;;;;;7.03;5.32;;;20.10;67.80;;;;;;5052582;28;20435;-71
2022/08/23 03:06:14;;;;;;;7.25;5.90;;;20.10;67.80;;;;;;5050646;28;20036;-72
2022/08/23 03:08:41;;;;;;;6.35;5.75;;;20.10;68.00;;;;;;5052554;28;20071;-71
2022/08/23 03:11:25;;;;;;;7.72;5.82;;;20.10;68.20;;;;;;5034556;28;20036;-71
2022/08/23 03:13:52;;;;;;;6.70;5.25;;;20.10;68.20;;;;;;5034406;28;20569;-71
2022/08/23 03:16:19;;;;;;;5.95;5.35;;;20.10;68.30;;;;;;5051466;28;20025;-71
2022/08/23 03:18:46;;;;;;;5.55;4.95;;;20.00;68.30;;;;;;5045475;28;20398;-71
2022/08/23 03:21:12;;;;;;;6.28;5.07;;;20.00;68.20;;;;;;5050655;28;20051;-71
2022/08/23 03:23:38;;;;;;;3.85;3.38;;;20.00;68.20;;;;;;5052031;28;20064;-71
2022/08/23 03:26:07;;;;;;;6.45;4.47;;;20.00;68.30;;;;;;5052077;28;20048;-71
2022/08/23 03:28:34;;;;;;;7.10;4.55;;;20.00;68.30;;;;;;5051134;28;20029;-71
2022/08/23 03:31:00;;;;;;;7.95;4.90;;;20.00;68.40;;;;;;5051850;28;20036;-71
2022/08/23 03:33:26;;;;;;;4.40;4.00;;;20.00;68.30;;;;;;5051803;28;20080;-70
2022/08/23 03:35:56;;;;;;;5.63;4.28;;;20.00;68.30;;;;;;5032155;28;20417;-71
2022/08/23 03:38:22;;;;;;;5.57;4.18;;;20.00;68.50;;;;;;5032606;28;20060;-71
2022/08/23 03:40:51;;;;;;;4.72;4.22;;;20.00;68.50;;;;;;5042507;28;20610;-71
2022/08/23 03:43:17;;;;;;;4.00;3.58;;;20.00;68.40;;;;;;5047761;28;20542;-72
2022/08/23 03:45:43;;;;;;;5.20;3.50;;;20.00;68.40;;;;;;5049880;28;20087;-71
2022/08/23 03:48:09;;;;;;;4.57;3.78;;;20.10;68.50;;;;;;5036136;28;20033;-71
2022/08/23 03:50:35;;;;;;;4.15;3.58;;;20.10;68.40;;;;;;5049540;28;20387;-71
2022/08/23 03:53:01;;;;;;;5.20;3.70;;;20.10;68.30;;;;;;5051464;28;20050;-72
2022/08/23 03:55:26;;;;;;;7.32;3.47;;;20.10;68.30;;;;;;5051180;28;20037;-71
2022/08/23 03:57:53;;;;;;;4.30;3.58;;;20.10;68.20;;;;;;5048477;28;20091;-71
2022/08/23 04:00:19;;;;;;;3.33;3.03;;;20.10;68.10;;;;;;5041149;28;20025;-71
2022/08/23 04:02:44;;;;;;;3.90;3.22;;;20.10;68.10;;;;;;5040261;28;20104;-71
2022/08/23 04:05:11;;;;;;;5.32;3.47;;;20.10;68.00;;;;;;5045816;28;20162;-71
2022/08/23 04:07:38;;;;;;;4.65;3.90;;;20.10;68.00;;;;;;5051003;28;20032;-71
2022/08/23 04:10:06;;;;;;;4.20;3.70;;;20.20;68.00;;;;;;5028892;28;20078;-71
2022/08/23 04:12:32;;;;;;;3.85;3.35;;;20.10;67.80;;;;;;5039406;28;20032;-71
2022/08/23 04:14:57;;;;;;;4.53;3.90;;;20.20;67.90;;;;;;5049443;28;20025;-70
2022/08/23 04:17:24;;;;;;;3.67;3.38;;;20.20;67.90;;;;;;5034712;28;20032;-70
2022/08/23 04:19:50;;;;;;;6.57;4.18;;;20.20;67.90;;;;;;5050918;28;20370;-71
2022/08/23 04:22:19;;;;;;;9.10;4.05;;;20.20;68.00;;;;;;5050702;28;20163;-71
2022/08/23 04:24:46;;;;;;;3.80;3.22;;;20.20;68.00;;;;;;5050894;28;20497;-72
2022/08/23 04:27:12;;;;;;;5.15;3.35;;;20.20;68.10;;;;;;5049580;28;20029;-71
2022/08/23 04:29:39;;;;;;;3.58;3.15;;;20.20;68.10;;;;;;5050857;28;20021;-71
2022/08/23 04:32:07;;;;;;;3.92;3.47;;;20.20;68.00;;;;;;5049420;28;20115;-71
2022/08/23 04:34:35;;;;;;;8.23;3.75;;;20.20;68.00;;;;;;5035576;28;20140;-71
2022/08/23 04:37:01;;;;;;;11.15;3.95;;;20.20;67.90;;;;;;5046937;28;20055;-71
2022/08/23 04:39:27;;;;;;;8.95;3.45;;;20.20;67.80;;;;;;5034175;28;20036;-71
2022/08/23 04:44:37;;;;;;;;;;;20.20;68.00;;;;;;5040153;28;20419;-71
2022/08/23 04:47:03;;;;;;;6.32;3.50;;;20.20;67.80;;;;;;5046491;28;20002;-71
2022/08/23 04:49:29;;;;;;;5.32;3.33;;;20.30;67.90;;;;;;5054183;28;20047;-71
2022/08/23 04:51:54;;;;;;;6.90;3.90;;;20.20;67.90;;;;;;5054883;28;20051;-72
2022/08/23 04:54:21;;;;;;;5.30;3.22;;;20.20;68.10;;;;;;5034748;28;20380;-71
2022/08/23 04:56:47;;;;;;;3.60;3.25;;;20.20;68.10;;;;;;5053702;28;20025;-71
2022/08/23 04:59:13;;;;;;;4.80;3.30;;;20.20;68.00;;;;;;5041208;28;20467;-72
2022/08/23 05:01:41;;;;;;;3.20;2.90;;;20.20;68.10;;;;;;5038496;28;20025;-71
2022/08/23 05:04:07;;;;;;;3.38;3.08;;;20.20;68.20;;;;;;5015327;28;20028;-71
2022/08/23 05:06:33;;;;;;;4.25;3.05;;;20.20;68.20;;;;;;5021462;28;20030;-71
2022/08/23 05:09:00;;;;;;;4.05;3.33;;;20.20;68.20;;;;;;5034675;28;20044;-71
2022/08/23 05:11:27;;;;;;;4.93;3.70;;;20.20;68.10;;;;;;5034565;28;20022;-71
2022/08/23 05:13:54;;;;;;;4.43;3.20;;;20.20;68.10;;;;;;5034415;28;20031;-72
2022/08/23 05:16:20;;;;;;;2.75;2.55;;;20.20;68.00;;;;;;5042173;28;20029;-71
2022/08/23 05:18:46;;;;;;;4.53;3.75;;;20.20;68.00;;;;;;5036175;28;20488;-70
2022/08/23 05:21:17;;;;;;;6.32;3.40;;;20.20;67.90;;;;;;5053807;28;20041;-71
2022/08/23 05:23:43;;;;;;;5.22;3.63;;;20.20;68.00;;;;;;5050749;28;20380;-71
2022/08/23 05:26:10;;;;;;;4.60;3.65;;;20.20;68.10;;;;;;5037359;28;20515;-71
2022/08/23 05:28:39;;;;;;;3.72;3.17;;;20.30;68.50;;;;;;5046920;28;20025;-71
2022/08/23 05:31:14;;;;;;;6.30;3.47;;;20.20;68.40;;;;;;5034901;28;20029;-71
2022/08/23 05:33:41;;;;;;;4.63;3.78;;;20.20;68.40;;;;;;5033508;28;20467;-71
2022/08/23 05:36:09;;;;;;;6.22;4.18;;;20.20;69.00;;;;;;5036602;28;20086;-71
2022/08/23 05:38:36;;;;;;;4.55;3.40;;;20.20;69.30;;;;;;5030894;28;20036;-72
2022/08/23 05:41:02;;;;;;;4.30;3.50;;;20.20;69.30;;;;;;5033608;28;20022;-71
2022/08/23 05:43:28;;;;;;;4.93;3.47;;;20.20;69.40;;;;;;5016481;28;20026;-72
2022/08/23 05:46:04;;;;;;;4.88;4.07;;;20.10;69.20;;;;;;5034254;28;20018;-71
2022/08/23 05:48:32;;;;;;;6.40;3.70;;;20.10;69.20;;;;;;5031315;28;20029;-71
2022/08/23 05:51:11;;;;;;;5.40;3.80;;;20.10;69.20;;;;;;5036642;28;20373;-72
2022/08/23 05:53:37;;;;;;;3.85;3.45;;;20.10;69.20;;;;;;5033345;28;20081;-73
2022/08/23 05:56:17;;;;;;;4.03;3.63;;;20.10;69.20;;;;;;5033203;28;20146;-72
2022/08/23 05:58:43;;;;;;;3.42;3.13;;;20.10;69.50;;;;;;5034477;28;20021;-72
2022/08/23 06:01:10;;;;;;;3.97;3.58;;;20.10;69.40;;;;;;5017207;28;20502;-72
2022/08/23 06:03:36;;;;;;;4.00;3.60;;;20.20;69.20;;;;;;5037208;28;20040;-72
2022/08/23 06:06:03;;;;;;;6.28;4.45;;;20.20;69.50;;;;;;5035024;28;20108;-72
2022/08/23 06:08:29;;;;;;;5.40;3.83;;;20.10;69.20;;;;;;5032792;28;20132;-72
2022/08/23 06:11:25;;;;;;;5.30;3.95;;;20.20;69.40;;;;;;5050329;28;20116;-72
2022/08/23 06:13:59;;;;;;;8.10;4.22;;;20.20;69.70;;;;;;4972466;28;20504;-73
2022/08/23 06:16:30;;;;;;;5.57;3.65;;;20.20;69.50;;;;;;4956562;28;20035;-73
2022/08/23 06:18:56;;;;;;;5.57;3.70;;;20.20;70.30;;;;;;4969394;28;20163;-72
2022/08/23 06:21:23;;;;;;;7.22;4.10;;;20.20;69.70;;;;;;4985628;28;20520;-73
2022/08/23 06:23:50;;;;;;;4.55;4.10;;;20.20;69.80;;;;;;4967439;28;20577;-73
2022/08/23 06:26:19;;;;;;;14.10;4.90;;;20.20;69.80;;;;;;4953863;28;20032;-73
2022/08/23 06:28:47;;;;;;;5.18;4.45;;;20.20;69.60;;;;;;4969551;28;20130;-73
2022/08/23 06:31:14;;;;;;;7.65;4.53;;;20.30;69.40;;;;;;4954058;29;20039;-73
2022/08/23 06:33:41;;;;;;;5.90;4.63;;;20.30;69.30;;;;;;4953734;28;20043;-73
2022/08/23 06:36:12;;;;;;;4.93;4.15;;;20.30;69.30;;;;;;4960733;28;20040;-73
2022/08/23 06:38:39;;;;;;;6.15;3.90;;;20.30;69.40;;;;;;4963596;28;20485;-72
2022/08/23 06:41:09;;;;;;;3.80;3.42;;;20.30;69.80;;;;;;4967368;28;20034;-73
2022/08/23 06:43:36;;;;;;;5.00;3.90;;;20.30;69.90;;;;;;4951016;28;20045;-73
2022/08/23 06:46:15;;;;;;;9.05;4.45;;;20.40;70.10;;;;;;4953618;28;20497;-72
2022/08/23 06:48:45;;;;;;;4.68;4.20;;;20.50;70.20;;;;;;4969727;28;20027;-72
2022/08/23 06:51:24;;;;;;;6.60;5.25;;;20.50;70.00;;;;;;5008328;28;20041;-72
2022/08/23 06:53:57;;;;;;;4.97;4.47;;;20.60;69.70;;;;;;5014067;28;20021;-73
2022/08/23 06:56:24;;;;;;;4.18;3.78;;;20.60;69.50;;;;;;5024943;28;20590;-72
2022/08/23 06:58:51;;;;;;;5.90;4.55;;;20.60;69.60;;;;;;5052833;28;20497;-72
2022/08/23 07:01:31;;;;;;;6.68;4.63;;;20.70;69.50;;;;;;5053570;28;20021;-72
2022/08/23 07:03:58;;;;;;;4.88;4.45;;;20.70;69.60;;;;;;5053574;28;20017;-72
2022/08/23 07:06:26;;;;;;;7.75;5.57;;;20.70;69.80;;;;;;5053596;28;20100;-71
2022/08/23 07:08:53;;;;;;;5.28;4.63;;;20.80;69.70;;;;;;5053236;28;20107;-72
2022/08/23 07:11:19;;;;;;;6.45;5.10;;;20.80;69.50;;;;;;5053075;28;20037;-72
2022/08/23 07:13:45;;;;;;;6.60;5.13;;;20.80;69.30;;;;;;5029988;28;20033;-72
2022/08/23 07:16:11;;;;;;;7.68;4.82;;;20.80;69.20;;;;;;5033507;28;20018;-72
2022/08/23 07:18:37;;;;;;;5.57;4.90;;;20.80;69.20;;;;;;5033438;28;20045;-72
2022/08/23 07:21:04;;;;;;;5.20;4.50;;;20.80;69.30;;;;;;5033076;28;20068;-72
2022/08/23 07:23:32;;;;;;;9.52;4.45;;;20.90;69.60;;;;;;5033326;28;20089;-71
2022/08/23 07:26:09;;;;;;;10.73;5.60;;;20.90;69.70;;;;;;5033345;28;20104;-72
2022/08/23 07:28:35;;;;;;;7.32;5.38;;;20.90;69.40;;;;;;5050147;28;20025;-72
2022/08/23 07:31:35;;;;;;;8.77;5.55;;;20.90;69.60;;;;;;5036401;28;20386;-71
2022/08/23 07:34:03;;;;;;;7.10;5.43;;;21.00;69.60;;;;;;5032323;28;20107;-72
2022/08/23 07:36:32;;;;;;;6.30;5.00;;;21.00;69.50;;;;;;5032894;28;20438;-73
2022/08/23 07:38:58;;;;;;;9.88;4.95;;;21.00;69.50;;;;;;5032959;28;20029;-73
2022/08/23 07:41:30;;;;;;;6.22;5.15;;;21.00;69.50;;;;;;5032960;28;20060;-72
2022/08/23 07:43:57;;;;;;;7.80;5.57;;;21.00;69.30;;;;;;5032921;28;20056;-72
2022/08/23 07:46:24;;;;;;;6.88;4.93;;;21.10;69.40;;;;;;5032827;28;20029;-72
2022/08/23 07:48:51;;;;;;;6.72;6.00;;;21.10;69.70;;;;;;5028935;28;20022;-73
2022/08/23 07:51:17;;;;;;;6.55;5.53;;;21.20;69.70;;;;;;5029942;28;20064;-73
2022/08/23 07:53:44;;;;;;;6.88;5.20;;;21.20;69.70;;;;;;5032648;28;20061;-73
2022/08/23 07:56:11;;;;;;;6.13;5.50;;;21.20;69.30;;;;;;5031308;28;20108;-74
2022/08/23 07:58:37;;;;;;;6.75;6.05;;;21.30;69.20;;;;;;5048984;28;20112;-72
2022/08/23 08:01:22;;;;;;;8.18;5.40;;;21.30;68.60;;;;;;5034678;28;20491;-72
2022/08/23 08:03:52;;;;;;;6.78;5.05;;;21.30;68.40;;;;;;5052829;28;20386;-73
2022/08/23 08:06:44;;;;;;;6.60;4.97;;;21.30;68.20;;;;;;5031238;28;20086;-73
2022/08/23 08:09:12;;;;;;;6.07;4.97;;;21.30;68.20;;;;;;5013028;28;20029;-73
2022/08/23 08:11:41;;;;;;;7.38;6.05;;;21.30;68.20;;;;;;5012763;28;20022;-73
2022/08/23 08:14:08;;;;;;;8.32;5.72;;;21.30;68.00;;;;;;5011455;28;20030;-73
2022/08/23 08:16:38;;;;;;;8.93;5.97;;;21.30;67.90;;;;;;5012821;28;20018;-72
2022/08/23 08:19:07;;;;;;;6.32;5.45;;;21.30;67.50;;;;;;5011471;28;20423;-72
2022/08/23 08:21:33;;;;;;;6.90;5.43;;;21.30;67.50;;;;;;5012612;28;20527;-71
2022/08/23 08:23:59;;;;;;;6.88;5.50;;;21.30;66.80;;;;;;5016648;28;20030;-71
2022/08/23 08:26:26;;;;;;;6.25;5.18;;;21.20;67.00;;;;;;5032069;28;20094;-72
2022/08/23 08:28:54;;;;;;;6.82;6.05;;;21.20;66.80;;;;;;5055121;28;20029;-72
2022/08/23 08:31:21;;;;;;;6.45;5.82;;;21.20;66.50;;;;;;5038369;28;20156;-71
2022/08/23 08:33:47;;;;;;;6.88;5.38;;;21.20;66.50;;;;;;5056259;28;20050;-72
2022/08/23 08:36:41;;;;;;;10.18;8.68;;;21.20;66.60;;;;;;5037941;28;20109;-72
2022/08/23 08:39:11;;;;;;;9.40;5.65;;;21.10;66.30;;;;;;5036210;28;20018;-72
2022/08/23 08:41:44;;;;;;;7.25;5.22;;;21.10;66.50;;;;;;5036145;28;20021;-73
2022/08/23 08:44:37;;;;;;;9.38;4.95;;;21.10;66.50;;;;;;5030625;28;20029;-72
2022/08/23 08:47:16;;;;;;;5.82;5.03;;;21.10;66.90;;;;;;5036214;28;20471;-72
2022/08/23 08:49:43;;;;;;;9.90;4.78;;;21.10;67.10;;;;;;5036024;28;20029;-72
2022/08/23 08:52:20;;;;;;;4.55;4.07;;;21.10;67.00;;;;;;5035975;28;20513;-72
2022/08/23 08:54:49;;;;;;;6.50;4.28;;;21.10;67.30;;;;;;5018171;28;20426;-72
2022/08/23 08:57:18;;;;;;;5.95;5.00;;;21.10;67.20;;;;;;5036816;28;20025;-72
2022/08/23 08:59:52;;;;;;;6.32;4.50;;;21.10;66.80;;;;;;5035734;28;20021;-72
2022/08/23 09:02:20;;;;;;;5.45;4.78;;;21.10;66.50;;;;;;5035976;28;20375;-72
2022/08/23 09:04:47;;;;;;;5.10;4.30;;;21.10;66.40;;;;;;5035718;28;20036;-72
2022/08/23 09:07:41;;;;;;;5.45;4.57;;;21.20;66.40;;;;;;5035570;28;20510;-72
2022/08/23 09:10:25;;;;;;;5.90;4.47;;;21.10;66.60;;;;;;5035899;28;20060;-72
2022/08/23 09:13:06;;;;;;;8.32;5.00;;;21.20;66.10;;;;;;5017885;28;20478;-72
2022/08/23 09:16:15;;;;;;;6.05;4.90;;;21.10;66.10;;;;;;5024841;28;20029;-72
2022/08/23 09:18:41;;;;;;;9.07;5.55;;;21.10;66.30;;;;;;5030773;28;20029;-73
2022/08/23 09:21:08;;;;;;;5.55;4.88;;;21.20;66.50;;;;;;5031566;28;20050;-73
2022/08/23 09:23:37;;;;;;;5.43;4.10;;;21.10;65.80;;;;;;5034266;28;20430;-72
2022/08/23 09:26:15;;;;;;;6.63;4.82;;;21.10;66.40;;;;;;5029045;28;20053;-74
2022/08/23 09:28:40;;;;;;;5.82;4.32;;;21.10;66.60;;;;;;5015087;28;20025;-73
2022/08/23 09:31:06;;;;;;;7.60;4.50;;;21.10;66.70;;;;;;5030821;28;20095;-73
2022/08/23 09:33:39;;;;;;;5.38;4.85;;;21.10;66.50;;;;;;5029738;28;20104;-74
2022/08/23 09:36:21;;;;;;;5.35;4.47;;;21.10;67.10;;;;;;5027224;28;20045;-73
2022/08/23 09:38:58;;;;;;;5.57;4.88;;;21.10;66.70;;;;;;5032671;28;20430;-73
2022/08/23 09:41:47;;;;;;;7.88;5.55;;;21.10;67.00;;;;;;5034370;28;20036;-73
2022/08/23 09:44:32;;;;;;;7.53;5.10;;;21.10;66.40;;;;;;5017428;28;20036;-74
2022/08/23 09:47:12;;;;;;;7.63;4.70;;;21.10;66.40;;;;;;5033089;28;20522;-74
2022/08/23 09:49:40;;;;;;;5.13;4.03;;;21.20;67.20;;;;;;5027689;28;20071;-73
2022/08/23 09:52:36;;;;;;;6.30;4.53;;;21.20;67.20;;;;;;5035043;28;20105;-74
2022/08/23 09:55:08;;;;;;;8.88;4.20;;;21.20;67.00;;;;;;5034834;28;20037;-74
2022/08/23 09:57:34;;;;;;;7.78;5.20;;;21.30;67.60;;;;;;5040865;28;20017;-74
2022/08/23 10:00:24;;;;;;;9.18;5.47;;;21.30;68.40;;;;;;5036620;28;20029;-74
2022/08/23 10:02:56;;;;;;;7.07;5.03;;;21.30;67.10;;;;;;5054803;28;20020;-74
2022/08/23 10:05:38;;;;;;;8.80;4.78;;;21.40;67.10;;;;;;5054739;28;20023;-73
2022/08/23 10:08:04;;;;;;;13.32;5.05;;;21.40;67.20;;;;;;5028570;28;20376;-74
2022/08/23 10:10:48;;;;;;;5.93;4.80;;;21.50;67.70;;;;;;5034693;28;20100;-73
2022/08/23 10:13:14;;;;;;;5.80;4.60;;;21.60;68.40;;;;;;5034922;28;20481;-73
2022/08/23 10:16:07;;;;;;;7.72;4.88;;;21.70;69.00;;;;;;5034528;28;20053;-73
2022/08/23 10:18:56;;;;;;;8.45;4.93;;;21.80;68.10;;;;;;5016613;28;20028;-73
2022/08/23 10:21:24;;;;;;;7.40;4.93;;;22.10;70.00;;;;;;5034273;28;20042;-73
2022/08/23 10:24:14;;;;;;;10.13;5.25;;;22.30;69.30;;;;;;5033043;28;20037;-73
2022/08/23 10:30:04;;;;;;;5.32;4.28;;;22.70;67.90;;;;;;5014545;28;20122;-74
2022/08/23 10:32:57;;;;;;;5.72;4.28;;;22.90;68.00;;;;;;5007287;28;20376;-74
2022/08/23 10:35:29;;;;;;;5.60;4.63;;;23.10;67.60;;;;;;5034184;28;20026;-74
2022/08/23 10:38:08;;;;;;;5.45;4.25;;;23.40;67.30;;;;;;5034162;28;20029;-73
2022/08/23 10:40:40;;;;;;;6.05;4.72;;;23.50;65.60;;;;;;5032874;28;20036;-74
2022/08/23 10:43:24;;;;;;;7.20;4.18;;;23.70;64.80;;;;;;5034198;28;20479;-73
2022/08/23 10:45:52;;;;;;;6.05;4.28;;;23.90;64.50;;;;;;5033305;28;20026;-74
2022/08/23 10:48:20;;;;;;;6.20;4.53;;;24.00;63.90;;;;;;5032608;28;20117;-74
2022/08/23 10:50:53;;;;;;;4.95;4.25;;;24.10;63.40;;;;;;5033927;28;20021;-73
2022/08/23 10:53:22;;;;;;;6.17;4.40;;;24.20;61.90;;;;;;5016274;28;20021;-74
2022/08/23 10:56:03;;;;;;;4.85;3.83;;;24.30;62.00;;;;;;5033796;28;20026;-74
2022/08/23 10:58:52;;;;;;;6.28;4.47;;;24.40;60.70;;;;;;5048086;28;20474;-73
2022/08/23 11:01:22;;;;;;;5.10;3.72;;;24.40;60.30;;;;;;5053700;28;20021;-74
2022/08/23 11:03:58;;;;;;;5.90;4.10;;;24.40;60.60;;;;;;5053586;28;20585;-73
2022/08/23 11:06:35;;;;;;;6.50;3.85;;;24.40;61.10;;;;;;5053647;28;20036;-73
2022/08/23 11:09:09;;;;;;;6.45;3.97;;;24.40;61.10;;;;;;5052294;28;20484;-74
2022/08/23 11:12:12;;;;;;;6.55;4.28;;;24.40;61.10;;;;;;5053810;28;20045;-73
2022/08/23 11:14:56;;;;;;;8.65;4.85;;;24.40;61.00;;;;;;5053266;28;20029;-73
2022/08/23 11:17:40;;;;;;;7.32;4.30;;;24.40;61.10;;;;;;5053424;28;20465;-73
2022/08/23 11:20:12;;;;;;;18.63;5.15;;;24.40;60.40;;;;;;5035455;28;20112;-73
2022/08/23 11:22:55;;;;;;;10.57;4.43;;;24.30;59.70;;;;;;5053121;28;20037;-73
2022/08/23 11:25:21;;;;;;;13.30;4.72;;;24.30;60.70;;;;;;5053228;28;20108;-74
2022/08/23 11:27:48;;;;;;;9.60;4.30;;;24.30;60.70;;;;;;5044580;28;20096;-73
2022/08/23 11:30:32;;;;;;;11.45;4.45;;;24.30;61.00;;;;;;5033162;28;20473;-74
2022/08/23 11:33:33;;;;;;;5.93;3.90;;;24.30;60.80;;;;;;5033202;28;20410;-74
2022/08/23 11:36:08;;;;;;;8.13;3.72;;;24.40;61.00;;;;;;5033146;28;20040;-74
2022/08/23 11:38:45;;;;;;;8.95;4.75;;;24.40;60.70;;;;;;5032987;28;20494;-74
2022/08/23 11:41:21;;;;;;;6.13;3.80;;;24.40;60.20;;;;;;5033279;28;20355;-74
2022/08/23 11:43:56;;;;;;;8.20;4.20;;;24.40;59.80;;;;;;5031828;28;20030;-74
2022/08/23 11:46:22;;;;;;;9.95;4.70;;;24.50;59.60;;;;;;5031590;28;20383;-74
2022/08/23 11:49:12;;;;;;;9.43;5.07;;;24.40;59.50;;;;;;5015249;28;20029;-74
2022/08/23 11:51:50;;;;;;;6.20;3.85;;;24.40;58.80;;;;;;5031743;28;20483;-74
2022/08/23 11:54:46;;;;;;;6.10;4.10;;;24.40;59.00;;;;;;5032824;28;20056;-74
2022/08/23 11:57:21;;;;;;;6.70;4.03;;;24.40;58.90;;;;;;5035695;28;20374;-74
2022/08/23 12:00:02;;;;;;;6.50;4.15;;;24.40;59.20;;;;;;5052420;28;20466;-74
2022/08/23 12:02:39;;;;;;;8.38;4.30;;;24.40;59.00;;;;;;5052538;28;20075;-74
2022/08/23 12:05:38;;;;;;;4.43;3.65;;;24.40;59.00;;;;;;5052649;28;20056;-74
2022/08/23 12:08:04;;;;;;;4.80;3.42;;;24.50;59.20;;;;;;5029060;28;20442;-74
2022/08/23 12:10:42;;;;;;;6.00;3.83;;;24.50;59.10;;;;;;5014134;28;20018;-73
2022/08/23 12:13:19;;;;;;;4.97;3.70;;;24.60;58.80;;;;;;5012931;28;20036;-74
2022/08/23 12:16:11;;;;;;;4.03;3.38;;;24.60;59.10;;;;;;5012861;28;20069;-75
2022/08/23 12:18:43;;;;;;;3.75;2.72;;;24.60;59.00;;;;;;4995276;28;20373;-75
2022/08/23 12:21:21;;;;;;;3.92;3.20;;;24.60;58.60;;;;;;5012604;28;20046;-74
2022/08/23 12:23:51;;;;;;;3.92;3.13;;;24.60;58.50;;;;;;5012827;28;20471;-75
2022/08/23 12:26:54;;;;;;;4.43;3.08;;;24.70;58.00;;;;;;5012795;28;20076;-75
2022/08/23 12:29:55;;;;;;;5.13;3.20;;;24.60;58.00;;;;;;5023296;28;20037;-75
2022/08/23 12:32:24;;;;;;;3.45;3.03;;;24.60;58.80;;;;;;5024346;28;20042;-75
2022/08/23 12:35:17;;;;;;;5.80;3.13;;;24.70;58.60;;;;;;5032357;28;20435;-75
2022/08/23 12:38:05;;;;;;;5.25;3.00;;;24.60;58.00;;;;;;5032484;28;20378;-75
2022/08/23 12:40:43;;;;;;;2.83;2.53;;;24.60;58.20;;;;;;5031152;28;20467;-76
2022/08/23 12:43:17;;;;;;;4.18;3.33;;;24.60;58.20;;;;;;5014695;28;20029;-75
2022/08/23 12:45:47;;;;;;;3.25;2.88;;;24.60;58.00;;;;;;5031132;28;20026;-74
2022/08/23 12:48:15;;;;;;;4.82;2.67;;;24.50;57.80;;;;;;5030988;28;20120;-74
2022/08/23 12:50:44;;;;;;;3.65;2.53;;;24.50;58.30;;;;;;5032313;28;20026;-75
2022/08/23 12:53:15;;;;;;;4.53;3.20;;;24.50;58.50;;;;;;5032293;28;20030;-74
2022/08/23 12:55:46;;;;;;;3.80;2.50;;;24.40;58.00;;;;;;5032217;28;20025;-75
2022/08/23 12:58:15;;;;;;;4.90;3.20;;;24.40;58.30;;;;;;5025063;28;20107;-74
2022/08/23 13:00:51;;;;;;;4.68;3.10;;;24.40;58.40;;;;;;5051942;28;20025;-74
2022/08/23 13:03:34;;;;;;;3.17;2.72;;;24.40;58.30;;;;;;5052150;28;20021;-74
2022/08/23 13:06:19;;;;;;;3.05;2.75;;;24.30;58.10;;;;;;5052164;28;20021;-74
2022/08/23 13:08:51;;;;;;;4.45;2.78;;;24.30;58.20;;;;;;5054013;28;20036;-74
2022/08/23 13:11:24;;;;;;;4.03;2.90;;;24.20;58.60;;;;;;5055637;28;20040;-74
2022/08/23 13:13:50;;;;;;;3.67;3.05;;;24.20;58.70;;;;;;5055682;28;20112;-75
2022/08/23 13:16:37;;;;;;;3.67;2.92;;;24.20;58.50;;;;;;5055692;28;20057;-74
2022/08/23 13:19:30;;;;;;;3.30;3.00;;;24.10;59.00;;;;;;5054355;28;20425;-74
2022/08/23 13:22:32;;;;;;;3.58;2.97;;;24.10;59.10;;;;;;5053109;28;20044;-74